createdAt,value
2018-04-14T00:01:27.191Z,95.94
2018-04-14T00:03:53.021Z,95.68
2018-04-14T00:06:18.811Z,95.83
2018-04-14T00:08:44.564Z,95.98
2018-04-14T00:11:10.300Z,96.02
2018-04-14T00:13:36.035Z,95.90
2018-04-14T00:16:01.760Z,95.52
2018-04-14T00:18:27.533Z,95.51
2018-04-14T00:20:53.281Z,95.78
2018-04-14T00:23:19.036Z,95.81
2018-04-14T00:25:44.759Z,95.73
2018-04-14T00:28:10.485Z,95.62
2018-04-14T00:30:36.220Z,95.59
2018-04-14T00:33:01.986Z,95.59
2018-04-14T00:35:27.710Z,95.74
2018-04-14T00:37:53.427Z,96.01
2018-04-14T00:40:19.161Z,95.91
2018-04-14T00:42:44.893Z,96.03
2018-04-14T00:45:10.677Z,96.14
2018-04-14T00:47:36.404Z,96.17
2018-04-14T00:50:02.168Z,96.25
2018-04-14T00:52:28.276Z,95.96
2018-04-14T00:54:54.031Z,96.19
2018-04-14T00:57:19.763Z,96.19
2018-04-14T00:59:45.496Z,96.42
2018-04-14T01:02:11.251Z,96.15
2018-04-14T01:04:36.984Z,96.22
2018-04-14T01:07:02.699Z,96.11
2018-04-14T01:09:28.420Z,96.23
2018-04-14T01:11:54.168Z,95.96
2018-04-14T01:14:19.908Z,96.09
2018-04-14T01:16:45.631Z,96.02
2018-04-14T01:19:11.377Z,95.86
2018-04-14T01:21:37.093Z,95.91
2018-04-14T01:24:02.836Z,95.32
2018-04-14T01:26:28.803Z,94.99
2018-04-14T01:28:54.544Z,95.23
2018-04-14T01:31:20.277Z,95.38
2018-04-14T01:33:46.017Z,95.40
2018-04-14T01:36:11.869Z,95.32
2018-04-14T01:38:37.596Z,95.88
2018-04-14T01:41:03.349Z,95.95
2018-04-14T01:43:29.072Z,96.26
2018-04-14T01:45:54.804Z,96.52
2018-04-14T01:48:20.531Z,96.67
2018-04-14T01:50:46.256Z,96.28
2018-04-14T01:53:11.975Z,96.10
2018-04-14T01:55:43.968Z,96.24
2018-04-14T01:58:09.744Z,96.75
2018-04-14T02:00:35.520Z,96.76
2018-04-14T02:03:01.267Z,96.75
2018-04-14T02:05:27.016Z,96.11
2018-04-14T02:07:52.745Z,96.45
2018-04-14T02:10:18.581Z,96.39
2018-04-14T02:12:44.295Z,96.71
2018-04-14T02:15:10.028Z,96.41
2018-04-14T02:17:35.756Z,96.64
2018-04-14T02:20:01.506Z,96.40
2018-04-14T02:22:27.223Z,96.37
2018-04-14T02:24:52.960Z,96.64
2018-04-14T02:27:18.686Z,96.76
2018-04-14T02:29:44.410Z,96.63
2018-04-14T02:32:10.139Z,96.12
2018-04-14T02:34:36.864Z,96.05
2018-04-14T02:37:03.647Z,96.07
2018-04-14T02:39:29.406Z,96.22
2018-04-14T02:41:55.128Z,96.74
2018-04-14T02:44:20.852Z,96.72
2018-04-14T02:46:46.608Z,96.71
2018-04-14T02:49:12.337Z,96.95
2018-04-14T02:51:38.078Z,97.10
2018-04-14T02:54:03.805Z,97.20
2018-04-14T02:56:29.540Z,97.29
2018-04-14T02:58:55.281Z,97.60
2018-04-14T03:01:21.019Z,97.74
2018-04-14T03:03:46.740Z,97.66
2018-04-14T03:06:12.472Z,97.66
2018-04-14T03:08:38.207Z,97.14
2018-04-14T03:11:03.952Z,97.62
2018-04-14T03:13:29.673Z,97.84
2018-04-14T03:15:55.396Z,97.85
2018-04-14T03:18:21.112Z,97.62
2018-04-14T03:20:46.828Z,97.61
2018-04-14T03:23:12.552Z,97.31
2018-04-14T03:25:38.307Z,97.28
2018-04-14T03:28:04.020Z,97.68
2018-04-14T03:30:29.760Z,97.95
2018-04-14T03:32:55.487Z,97.86
2018-04-14T03:35:21.221Z,97.70
2018-04-14T03:37:46.957Z,97.52
2018-04-14T03:40:12.713Z,97.38
2018-04-14T03:42:38.461Z,97.74
2018-04-14T03:45:04.193Z,97.70
2018-04-14T03:47:29.944Z,97.82
2018-04-14T03:49:55.699Z,97.56
2018-04-14T03:52:21.438Z,97.55
2018-04-14T03:54:47.165Z,97.32
2018-04-14T03:57:12.892Z,97.22
2018-04-14T03:59:38.632Z,97.09
2018-04-14T04:02:04.380Z,97.12
2018-04-14T04:04:30.133Z,96.93
2018-04-14T04:06:55.858Z,97.03
2018-04-14T04:09:21.588Z,96.95
2018-04-14T04:11:47.315Z,97.08
2018-04-14T04:14:13.031Z,97.15
2018-04-14T04:16:38.776Z,96.94
2018-04-14T04:19:16.845Z,96.75
2018-04-14T04:21:55.060Z,96.73
2018-04-14T04:24:33.240Z,96.70
2018-04-14T04:26:58.985Z,96.86
2018-04-14T04:29:24.720Z,96.64
2018-04-14T04:31:50.465Z,96.51
2018-04-14T04:34:16.196Z,96.59
2018-04-14T04:36:41.941Z,96.59
2018-04-14T04:39:07.665Z,97.10
2018-04-14T04:41:33.400Z,97.13
2018-04-14T04:43:59.128Z,97.18
2018-04-14T04:46:24.868Z,97.07
2018-04-14T04:48:50.649Z,97.01
2018-04-14T04:51:16.349Z,97.23
2018-04-14T04:53:42.089Z,97.14
2018-04-14T04:56:07.827Z,97.02
2018-04-14T04:58:33.577Z,96.95
2018-04-14T05:00:59.301Z,97.04
2018-04-14T05:03:25.027Z,96.98
2018-04-14T05:05:50.753Z,97.04
2018-04-14T05:08:16.485Z,97.13
2018-04-14T05:10:42.204Z,96.83
2018-04-14T05:13:07.930Z,96.96
2018-04-14T05:15:33.666Z,97.06
2018-04-14T05:17:59.405Z,97.24
2018-04-14T05:20:25.136Z,97.45
2018-04-14T05:22:50.892Z,97.62
2018-04-14T05:25:16.626Z,97.47
2018-04-14T05:27:42.387Z,97.63
2018-04-14T05:30:08.113Z,97.87
2018-04-14T05:32:33.861Z,98.01
2018-04-14T05:34:59.589Z,98.14
2018-04-14T05:37:25.325Z,98.29
2018-04-14T05:39:51.047Z,98.50
2018-04-14T05:42:16.781Z,98.71
2018-04-14T05:44:42.520Z,99.02
2018-04-14T05:47:08.268Z,99.55
2018-04-14T05:49:33.992Z,99.53
2018-04-14T05:51:59.735Z,99.42
2018-04-14T05:54:25.495Z,99.68
2018-04-14T05:56:51.209Z,100.00
2018-04-14T05:59:16.944Z,100.00
2018-04-14T06:01:42.689Z,100.00
2018-04-14T06:04:08.417Z,99.93
2018-04-14T06:06:34.137Z,99.74
2018-04-14T06:08:59.880Z,99.76
2018-04-14T06:11:25.584Z,99.85
2018-04-14T06:13:51.312Z,99.58
2018-04-14T06:16:17.040Z,99.62
2018-04-14T06:18:42.776Z,99.70
2018-04-14T06:21:08.507Z,99.84
2018-04-14T06:23:34.245Z,99.86
2018-04-14T06:25:59.972Z,99.65
2018-04-14T06:28:25.707Z,99.45
2018-04-14T06:30:51.440Z,99.08
2018-04-14T06:33:17.180Z,99.24
2018-04-14T06:35:42.904Z,99.07
2018-04-14T06:38:08.642Z,99.06
2018-04-14T06:40:34.382Z,99.03
2018-04-14T06:43:00.124Z,98.97
2018-04-14T06:45:25.849Z,99.02
2018-04-14T06:47:51.646Z,98.88
2018-04-14T06:50:17.345Z,98.81
2018-04-14T06:52:43.098Z,98.49
2018-04-14T06:55:08.835Z,98.50
2018-04-14T06:57:34.598Z,98.29
2018-04-14T07:00:00.336Z,97.87
2018-04-14T07:02:26.085Z,97.85
2018-04-14T07:04:51.826Z,97.78
2018-04-14T07:07:17.568Z,98.08
2018-04-14T07:09:43.309Z,98.29
2018-04-14T07:12:09.045Z,98.03
2018-04-14T07:14:34.765Z,98.04
2018-04-14T07:17:00.496Z,98.11
2018-04-14T07:19:26.239Z,98.02
2018-04-14T07:21:51.967Z,97.84
2018-04-14T07:24:17.707Z,97.28
2018-04-14T07:26:43.440Z,96.84
2018-04-14T07:29:09.179Z,97.11
2018-04-14T07:31:34.900Z,97.07
2018-04-14T07:34:00.645Z,97.02
2018-04-14T07:36:26.374Z,96.91
2018-04-14T07:38:52.123Z,96.69
2018-04-14T07:41:17.840Z,96.66
2018-04-14T07:43:43.577Z,96.46
2018-04-14T07:46:09.317Z,96.70
2018-04-14T07:48:35.067Z,96.69
2018-04-14T07:51:00.801Z,96.46
2018-04-14T07:53:26.543Z,96.67
2018-04-14T07:55:52.260Z,96.80
2018-04-14T07:58:18.010Z,96.97
2018-04-14T08:00:43.756Z,96.32
2018-04-14T08:03:09.508Z,96.55
2018-04-14T08:05:35.242Z,96.94
2018-04-14T08:08:00.983Z,97.14
2018-04-14T08:10:26.708Z,97.45
2018-04-14T08:12:52.444Z,97.63
2018-04-14T08:15:18.186Z,97.94
2018-04-14T08:17:43.945Z,98.01
2018-04-14T08:20:09.680Z,98.13
2018-04-14T08:22:35.427Z,97.92
2018-04-14T08:25:01.184Z,97.44
2018-04-14T08:27:26.913Z,97.08
2018-04-14T08:29:52.648Z,96.96
2018-04-14T08:32:18.387Z,96.87
2018-04-14T08:34:44.120Z,96.79
2018-04-14T08:37:09.844Z,97.12
2018-04-14T08:39:35.580Z,97.20
2018-04-14T08:42:01.320Z,97.48
2018-04-14T08:44:27.053Z,97.60
2018-04-14T08:46:52.792Z,97.35
2018-04-14T08:49:18.538Z,97.03
2018-04-14T08:51:44.268Z,96.90
2018-04-14T08:54:10.031Z,96.99
2018-04-14T08:56:35.764Z,97.12
2018-04-14T08:59:01.524Z,96.77
2018-04-14T09:01:27.255Z,96.95
2018-04-14T09:03:52.984Z,97.35
2018-04-14T09:06:18.705Z,97.44
2018-04-14T09:08:44.442Z,97.29
2018-04-14T09:11:10.177Z,97.23
2018-04-14T09:13:35.919Z,97.27
2018-04-14T09:16:01.664Z,97.33
2018-04-14T09:18:27.404Z,96.82
2018-04-14T09:20:53.220Z,97.42
2018-04-14T09:23:20.393Z,97.02
2018-04-14T09:25:47.061Z,97.48
2018-04-14T09:28:12.788Z,97.24
2018-04-14T09:30:38.521Z,97.52
2018-04-14T09:33:04.267Z,97.69
2018-04-14T09:35:30.006Z,97.24
2018-04-14T09:37:55.737Z,97.12
2018-04-14T09:40:21.620Z,97.43
2018-04-14T09:42:47.360Z,97.09
2018-04-14T09:45:13.109Z,96.81
2018-04-14T09:47:38.848Z,96.69
2018-04-14T09:50:04.612Z,97.07
2018-04-14T09:52:30.340Z,96.94
2018-04-14T09:54:56.072Z,97.28
2018-04-14T09:57:22.072Z,97.39
2018-04-14T09:59:47.835Z,97.22
2018-04-14T10:02:13.979Z,97.34
2018-04-14T10:04:40.031Z,97.04
2018-04-14T10:07:05.769Z,97.28
2018-04-14T10:09:31.604Z,96.94
2018-04-14T10:11:57.358Z,96.12
2018-04-14T10:14:23.096Z,95.76
2018-04-14T10:16:48.825Z,95.39
2018-04-14T10:19:14.569Z,95.32
2018-04-14T10:21:40.291Z,94.77
2018-04-14T10:24:06.020Z,95.21
2018-04-14T10:26:31.737Z,95.00
2018-04-14T10:28:57.756Z,95.02
2018-04-14T10:31:23.500Z,95.15
2018-04-14T10:33:49.227Z,94.72
2018-04-14T10:36:14.968Z,94.79
2018-04-14T10:38:40.708Z,94.98
2018-04-14T10:41:06.450Z,95.06
2018-04-14T10:43:32.188Z,95.49
2018-04-14T10:45:57.924Z,95.60
2018-04-14T10:48:23.684Z,95.61
2018-04-14T10:50:49.425Z,95.38
2018-04-14T10:53:15.168Z,95.12
2018-04-14T10:55:40.908Z,95.00
2018-04-14T10:58:06.640Z,95.09
2018-04-14T11:00:32.367Z,95.31
2018-04-14T11:02:58.105Z,95.05
2018-04-14T11:05:23.852Z,94.93
2018-04-14T11:07:49.580Z,95.05
2018-04-14T11:10:15.320Z,95.31
2018-04-14T11:12:41.060Z,95.03
2018-04-14T11:15:06.807Z,95.26
2018-04-14T11:17:32.534Z,94.93
2018-04-14T11:19:58.273Z,94.76
2018-04-14T11:22:23.998Z,94.62
2018-04-14T11:24:49.747Z,94.32
2018-04-14T11:27:15.468Z,94.27
2018-04-14T11:29:41.213Z,94.63
2018-04-14T11:32:06.936Z,94.94
2018-04-14T11:34:32.668Z,95.14
2018-04-14T11:36:58.388Z,95.18
2018-04-14T11:39:24.127Z,94.87
2018-04-14T11:41:49.871Z,95.31
2018-04-14T11:44:15.608Z,95.51
2018-04-14T11:46:41.352Z,95.70
2018-04-14T11:49:07.089Z,95.76
2018-04-14T11:51:32.828Z,95.88
2018-04-14T11:53:58.556Z,95.81
2018-04-14T11:56:24.297Z,95.83
2018-04-14T11:58:50.041Z,95.84
2018-04-14T12:01:15.772Z,95.92
2018-04-14T12:03:41.545Z,96.35
2018-04-14T12:06:07.250Z,96.24
2018-04-14T12:08:33.000Z,96.12
2018-04-14T12:10:58.741Z,95.86
2018-04-14T12:13:24.480Z,95.57
2018-04-14T12:15:50.227Z,95.47
2018-04-14T12:18:15.957Z,95.46
2018-04-14T12:20:41.692Z,95.38
2018-04-14T12:23:07.428Z,95.57
2018-04-14T12:25:33.172Z,95.33
2018-04-14T12:27:58.905Z,95.21
2018-04-14T12:30:24.646Z,95.55
2018-04-14T12:32:50.373Z,95.18
2018-04-14T12:35:16.112Z,95.32
2018-04-14T12:37:41.848Z,95.28
2018-04-14T12:40:07.608Z,95.05
2018-04-14T12:42:33.340Z,95.00
2018-04-14T12:44:59.093Z,95.07
2018-04-14T12:47:24.832Z,94.77
2018-04-14T12:49:50.564Z,94.83
2018-04-14T12:52:16.299Z,94.52
2018-04-14T12:54:42.039Z,94.46
2018-04-14T12:57:07.774Z,94.33
2018-04-14T12:59:33.514Z,94.49
2018-04-14T13:01:59.264Z,94.61
2018-04-14T13:04:24.992Z,94.52
2018-04-14T13:06:50.732Z,94.56
2018-04-14T13:09:16.510Z,94.29
2018-04-14T13:11:42.222Z,94.11
2018-04-14T13:14:07.956Z,94.32
2018-04-14T13:16:33.703Z,94.57
2018-04-14T13:18:59.456Z,94.81
2018-04-14T13:21:25.192Z,95.16
2018-04-14T13:23:50.924Z,95.65
2018-04-14T13:26:16.681Z,96.07
2018-04-14T13:28:42.407Z,96.28
2018-04-14T13:31:08.155Z,96.26
2018-04-14T13:33:33.887Z,96.04
2018-04-14T13:35:59.629Z,96.21
2018-04-14T13:38:25.364Z,95.90
2018-04-14T13:40:51.109Z,96.16
2018-04-14T13:43:16.849Z,96.24
2018-04-14T13:45:42.592Z,96.34
2018-04-14T13:48:08.332Z,96.70
2018-04-14T13:50:34.063Z,96.67
2018-04-14T13:52:59.794Z,97.21
2018-04-14T13:55:25.524Z,97.45
2018-04-14T13:57:51.258Z,97.52
2018-04-14T14:00:16.992Z,97.84
2018-04-14T14:02:42.715Z,98.21
2018-04-14T14:05:08.444Z,98.53
2018-04-14T14:07:34.196Z,98.45
2018-04-14T14:09:59.922Z,98.60
2018-04-14T14:12:25.652Z,98.60
2018-04-14T14:14:51.403Z,99.29
2018-04-14T14:17:17.153Z,99.26
2018-04-14T14:19:42.875Z,99.68
2018-04-14T14:22:08.624Z,99.79
2018-04-14T14:24:34.363Z,99.56
2018-04-14T14:27:00.109Z,99.63
2018-04-14T14:29:25.856Z,100.00
2018-04-14T14:31:51.580Z,100.00
2018-04-14T14:34:17.307Z,100.00
2018-04-14T14:36:43.044Z,100.00
2018-04-14T14:39:08.764Z,100.00
2018-04-14T14:41:34.496Z,100.00
2018-04-14T14:44:00.229Z,100.00
2018-04-14T14:46:25.977Z,100.00
2018-04-14T14:48:51.711Z,100.00
2018-04-14T14:51:17.440Z,100.00
2018-04-14T14:53:43.176Z,100.00
2018-04-14T14:56:08.913Z,100.00
2018-04-14T14:58:34.642Z,100.00
2018-04-14T15:01:00.384Z,100.00
2018-04-14T15:03:26.123Z,100.00
2018-04-14T15:05:51.856Z,100.00
2018-04-14T15:08:17.603Z,100.00
2018-04-14T15:10:43.332Z,100.00
2018-04-14T15:13:09.079Z,100.00
2018-04-14T15:15:34.810Z,100.00
2018-04-14T15:18:00.549Z,99.86
2018-04-14T15:20:26.276Z,99.89
2018-04-14T15:22:52.012Z,99.74
2018-04-14T15:25:17.757Z,99.93
2018-04-14T15:27:43.487Z,99.86
2018-04-14T15:30:09.207Z,99.68
2018-04-14T15:32:34.931Z,99.48
2018-04-14T15:35:00.664Z,99.65
2018-04-14T15:37:26.400Z,99.79
2018-04-14T15:39:52.120Z,99.81
2018-04-14T15:42:17.847Z,99.83
2018-04-14T15:44:43.576Z,99.71
2018-04-14T15:47:09.322Z,99.66
2018-04-14T15:49:35.056Z,99.60
2018-04-14T15:52:00.797Z,99.67
2018-04-14T15:54:26.517Z,99.52
2018-04-14T15:56:52.249Z,99.65
2018-04-14T15:59:17.988Z,99.80
2018-04-14T16:01:43.720Z,99.92
2018-04-14T16:04:09.888Z,99.85
2018-04-14T16:06:35.200Z,99.68
2018-04-14T16:09:00.944Z,99.62
2018-04-14T16:11:26.685Z,99.48
2018-04-14T16:13:52.421Z,99.50
2018-04-14T16:16:18.156Z,99.45
2018-04-14T16:18:43.920Z,99.55
2018-04-14T16:21:09.656Z,99.55
2018-04-14T16:23:35.448Z,99.32
2018-04-14T16:26:01.155Z,99.02
2018-04-14T16:28:26.889Z,99.24
2018-04-14T16:30:52.616Z,99.06
2018-04-14T16:33:18.347Z,99.15
2018-04-14T16:35:44.070Z,99.12
2018-04-14T16:38:09.800Z,99.13
2018-04-14T16:40:35.524Z,99.46
2018-04-14T16:43:01.256Z,99.52
2018-04-14T16:45:26.980Z,99.88
2018-04-14T16:47:52.724Z,99.79
2018-04-14T16:50:18.468Z,99.74
2018-04-14T16:52:44.199Z,99.80
2018-04-14T16:55:09.918Z,99.97
2018-04-14T16:57:35.663Z,100.00
2018-04-14T17:00:01.417Z,100.00
2018-04-14T17:02:27.145Z,100.00
2018-04-14T17:04:52.895Z,100.00
2018-04-14T17:07:18.620Z,100.00
2018-04-14T17:09:44.360Z,100.00
2018-04-14T17:12:10.073Z,100.00
2018-04-14T17:14:35.805Z,100.00
2018-04-14T17:17:01.540Z,100.00
2018-04-14T17:19:27.284Z,100.00
2018-04-14T17:21:53.008Z,100.00
2018-04-14T17:24:18.743Z,100.00
2018-04-14T17:26:44.501Z,100.00
2018-04-14T17:29:10.241Z,100.00
2018-04-14T17:31:35.972Z,100.00
2018-04-14T17:34:02.508Z,100.00
2018-04-14T17:36:28.224Z,100.00
2018-04-14T17:38:53.956Z,100.00
2018-04-14T17:41:19.683Z,100.00
2018-04-14T17:43:45.415Z,100.00
2018-04-14T17:46:11.131Z,100.00
2018-04-14T17:48:36.872Z,100.00
2018-04-14T17:51:02.597Z,100.00
2018-04-14T17:53:28.323Z,100.00
2018-04-14T17:55:54.056Z,100.00
2018-04-14T17:58:19.805Z,100.00
2018-04-14T18:00:45.540Z,100.00
2018-04-14T18:03:11.288Z,100.00
2018-04-14T18:05:37.031Z,100.00
2018-04-14T18:08:02.767Z,100.00
2018-04-14T18:10:28.488Z,100.00
2018-04-14T18:12:54.278Z,100.00
2018-04-14T18:15:20.012Z,100.00
2018-04-14T18:17:45.774Z,100.00
2018-04-14T18:20:11.582Z,100.00
2018-04-14T18:22:37.372Z,100.00
2018-04-14T18:25:03.201Z,100.00
2018-04-14T18:27:28.996Z,100.00
2018-04-14T18:29:54.761Z,100.00
2018-04-14T18:32:20.507Z,100.00
2018-04-14T18:34:46.251Z,100.00
2018-04-14T18:37:12.020Z,100.00
2018-04-14T18:39:37.731Z,100.00
2018-04-14T18:42:03.455Z,100.00
2018-04-14T18:44:29.598Z,100.00
2018-04-14T18:46:56.591Z,100.00
2018-04-14T18:49:22.774Z,100.00
2018-04-14T18:51:48.932Z,100.00
2018-04-14T18:54:14.720Z,100.00
2018-04-14T18:56:40.459Z,100.00
2018-04-14T18:59:06.210Z,100.00
2018-04-14T19:01:31.921Z,100.00
2018-04-14T19:03:58.956Z,100.00
2018-04-14T19:06:24.695Z,100.00
2018-04-14T19:08:50.429Z,100.00
2018-04-14T19:11:16.145Z,100.00
2018-04-14T19:13:41.929Z,100.00
2018-04-14T19:16:07.608Z,100.00
2018-04-14T19:18:33.345Z,100.00
2018-04-14T19:20:59.067Z,100.00
2018-04-14T19:23:24.799Z,100.00
2018-04-14T19:25:50.538Z,100.00
2018-04-14T19:28:16.256Z,100.00
2018-04-14T19:30:41.992Z,100.00
2018-04-14T19:33:07.728Z,100.00
2018-04-14T19:35:33.466Z,100.00
2018-04-14T19:37:59.249Z,100.00
2018-04-14T19:40:24.942Z,100.00
2018-04-14T19:42:50.668Z,100.00
2018-04-14T19:45:16.403Z,100.00
2018-04-14T19:47:42.124Z,100.00
2018-04-14T19:50:07.855Z,100.00
2018-04-14T19:52:33.586Z,100.00
2018-04-14T19:54:59.327Z,100.00
2018-04-14T19:57:25.052Z,99.87
2018-04-14T19:59:50.803Z,99.90
2018-04-14T20:02:16.517Z,99.95
2018-04-14T20:04:42.249Z,99.58
2018-04-14T20:07:08.055Z,99.43
2018-04-14T20:09:33.744Z,99.09
2018-04-14T20:11:59.472Z,99.19
2018-04-14T20:14:25.208Z,99.53
2018-04-14T20:16:50.928Z,99.85
2018-04-14T20:19:16.660Z,99.96
2018-04-14T20:21:42.380Z,100.00
2018-04-14T20:24:08.112Z,100.00
2018-04-14T20:26:33.840Z,100.00
2018-04-14T20:28:59.575Z,100.00
2018-04-14T20:31:25.303Z,100.00
2018-04-14T20:33:51.045Z,100.00
2018-04-14T20:36:16.796Z,100.00
2018-04-14T20:38:42.527Z,100.00
2018-04-14T20:41:08.311Z,100.00
2018-04-14T20:43:33.992Z,100.00
2018-04-14T20:45:59.729Z,100.00
2018-04-14T20:48:25.477Z,100.00
2018-04-14T20:50:51.209Z,100.00
2018-04-14T20:53:16.928Z,100.00
2018-04-14T20:55:42.690Z,100.00
2018-04-14T20:58:08.411Z,100.00
2018-04-14T21:00:34.147Z,100.00
2018-04-14T21:02:59.872Z,100.00
2018-04-14T21:05:25.612Z,100.00
2018-04-14T21:07:51.339Z,100.00
2018-04-14T21:10:17.075Z,100.00
2018-04-14T21:12:42.810Z,100.00
2018-04-14T21:15:08.545Z,100.00
2018-04-14T21:17:34.266Z,100.00
2018-04-14T21:19:59.996Z,100.00
2018-04-14T21:22:25.748Z,100.00
2018-04-14T21:24:51.488Z,100.00
2018-04-14T21:27:17.209Z,100.00
2018-04-14T21:29:42.944Z,100.00
2018-04-14T21:32:08.665Z,100.00
2018-04-14T21:34:34.409Z,100.00
2018-04-14T21:37:00.124Z,100.00
2018-04-14T21:39:25.848Z,100.00
2018-04-14T21:41:51.577Z,100.00
2018-04-14T21:44:17.327Z,100.00
2018-04-14T21:46:43.048Z,100.00
2018-04-14T21:49:08.788Z,100.00
2018-04-14T21:51:34.545Z,100.00
2018-04-14T21:54:00.288Z,100.00
2018-04-14T21:56:26.025Z,100.00
2018-04-14T21:58:51.763Z,100.00
2018-04-14T22:01:17.504Z,100.00
2018-04-14T22:03:43.227Z,100.00
2018-04-14T22:06:08.979Z,100.00
2018-04-14T22:08:34.712Z,100.00
2018-04-14T22:11:00.447Z,100.00
2018-04-14T22:13:26.179Z,100.00
2018-04-14T22:15:51.918Z,100.00
2018-04-14T22:18:17.645Z,100.00
2018-04-14T22:20:43.396Z,100.00
2018-04-14T22:23:09.133Z,100.00
2018-04-14T22:25:34.869Z,100.00
2018-04-14T22:28:00.596Z,100.00
2018-04-14T22:30:26.336Z,100.00
2018-04-14T22:32:52.072Z,100.00
2018-04-14T22:35:17.880Z,100.00
2018-04-14T22:37:43.583Z,100.00
2018-04-14T22:40:09.323Z,100.00
2018-04-14T22:42:35.064Z,100.00
2018-04-14T22:45:00.798Z,100.00
2018-04-14T22:47:26.541Z,100.00
2018-04-14T22:49:52.272Z,100.00
2018-04-14T22:52:18.009Z,100.00
2018-04-14T22:54:43.743Z,100.00
2018-04-14T22:57:09.477Z,100.00
2018-04-14T22:59:35.212Z,100.00
2018-04-14T23:02:00.952Z,100.00
2018-04-14T23:04:26.684Z,100.00
2018-04-14T23:06:52.420Z,100.00
2018-04-14T23:09:18.152Z,100.00
2018-04-14T23:11:43.889Z,100.00
2018-04-14T23:16:41.211Z,100.00
2018-04-14T23:19:06.932Z,100.00
2018-04-14T23:21:32.664Z,100.00
2018-04-14T23:23:58.392Z,100.00
2018-04-14T23:26:24.149Z,100.00
2018-04-14T23:28:49.875Z,100.00
2018-04-14T23:31:15.615Z,100.00
2018-04-14T23:33:41.344Z,100.00
2018-04-14T23:36:07.084Z,100.00
2018-04-14T23:38:32.804Z,100.00
2018-04-14T23:40:58.545Z,100.00
2018-04-14T23:43:24.264Z,100.00
2018-04-14T23:45:50.003Z,100.00
2018-04-14T23:48:15.739Z,100.00
2018-04-14T23:50:41.493Z,100.00
2018-04-14T23:53:07.219Z,100.00
2018-04-14T23:55:32.942Z,100.00
2018-04-14T23:57:58.671Z,100.00
